sensor_id;sensor_type;location;lat;lon;timestamp;pressure;altitude;pressure_sealevel;temperature;humidity
70198;BME280;57582;-34.876;138.628;2022-07-23T00:01:40;101274;;;16.13;61.19
70198;BME280;57582;-34.876;138.628;2022-07-23T00:04:40;101279;;;16.08;61.40
70198;BME280;57582;-34.876;138.628;2022-07-23T00:07:40;101272;;;16.16;61.16
70198;BME280;57582;-34.876;138.628;2022-07-23T00:10:40;101274;;;16.21;61.12
70198;BME280;57582;-34.876;138.628;2022-07-23T00:13:40;101272;;;16.24;60.91
70198;BME280;57582;-34.876;138.628;2022-07-23T00:16:40;101278;;;16.25;60.17
70198;BME280;57582;-34.876;138.628;2022-07-23T00:19:40;101280;;;16.34;60.76
70198;BME280;57582;-34.876;138.628;2022-07-23T00:22:48;101282;;;16.47;59.76
70198;BME280;57582;-34.876;138.628;2022-07-23T00:25:40;101280;;;16.57;59.26
70198;BME280;57582;-34.876;138.628;2022-07-23T00:28:41;101282;;;16.58;60.04
70198;BME280;57582;-34.876;138.628;2022-07-23T00:31:40;101282;;;16.65;59.42
70198;BME280;57582;-34.876;138.628;2022-07-23T00:34:40;101279;;;16.73;59.00
70198;BME280;57582;-34.876;138.628;2022-07-23T00:37:40;101277;;;16.86;59.00
70198;BME280;57582;-34.876;138.628;2022-07-23T00:40:40;101277;;;16.98;58.57
70198;BME280;57582;-34.876;138.628;2022-07-23T00:43:40;101280;;;17.09;58.19
70198;BME280;57582;-34.876;138.628;2022-07-23T00:46:45;101284;;;17.10;57.47
70198;BME280;57582;-34.876;138.628;2022-07-23T00:49:40;101290;;;17.21;57.72
70198;BME280;57582;-34.876;138.628;2022-07-23T00:52:41;101285;;;17.20;57.30
70198;BME280;57582;-34.876;138.628;2022-07-23T00:55:40;101292;;;17.22;57.01
70198;BME280;57582;-34.876;138.628;2022-07-23T00:58:40;101284;;;17.30;57.46
70198;BME280;57582;-34.876;138.628;2022-07-23T01:01:40;101295;;;17.44;56.64
70198;BME280;57582;-34.876;138.628;2022-07-23T01:04:40;101284;;;17.54;55.61
70198;BME280;57582;-34.876;138.628;2022-07-23T01:07:40;101284;;;17.67;54.72
70198;BME280;57582;-34.876;138.628;2022-07-23T01:10:40;101284;;;17.81;54.84
70198;BME280;57582;-34.876;138.628;2022-07-23T01:13:42;101285;;;17.76;54.46
70198;BME280;57582;-34.876;138.628;2022-07-23T01:16:41;101288;;;17.81;54.96
70198;BME280;57582;-34.876;138.628;2022-07-23T01:19:40;101287;;;17.90;54.94
70198;BME280;57582;-34.876;138.628;2022-07-23T01:22:40;101285;;;17.94;54.11
70198;BME280;57582;-34.876;138.628;2022-07-23T01:25:48;101291;;;18.02;54.15
70198;BME280;57582;-34.876;138.628;2022-07-23T01:28:41;101283;;;18.00;52.13
70198;BME280;57582;-34.876;138.628;2022-07-23T01:31:40;101283;;;18.01;52.32
70198;BME280;57582;-34.876;138.628;2022-07-23T01:34:40;101287;;;18.03;52.25
70198;BME280;57582;-34.876;138.628;2022-07-23T01:37:40;101284;;;18.16;52.76
70198;BME280;57582;-34.876;138.628;2022-07-23T01:40:41;101281;;;18.16;52.06
70198;BME280;57582;-34.876;138.628;2022-07-23T01:43:40;101267;;;18.29;52.11
70198;BME280;57582;-34.876;138.628;2022-07-23T01:46:40;101269;;;18.50;51.29
70198;BME280;57582;-34.876;138.628;2022-07-23T01:49:40;101263;;;18.54;51.68
70198;BME280;57582;-34.876;138.628;2022-07-23T01:52:41;101273;;;18.71;51.06
70198;BME280;57582;-34.876;138.628;2022-07-23T01:55:40;101276;;;18.89;51.40
70198;BME280;57582;-34.876;138.628;2022-07-23T01:58:40;101267;;;19.17;50.25
70198;BME280;57582;-34.876;138.628;2022-07-23T02:01:40;101266;;;19.11;50.46
70198;BME280;57582;-34.876;138.628;2022-07-23T02:04:41;101257;;;18.99;50.05
70198;BME280;57582;-34.876;138.628;2022-07-23T02:07:40;101252;;;19.01;48.44
70198;BME280;57582;-34.876;138.628;2022-07-23T02:10:40;101248;;;18.99;50.38
70198;BME280;57582;-34.876;138.628;2022-07-23T02:13:40;101248;;;19.19;49.49
70198;BME280;57582;-34.876;138.628;2022-07-23T02:16:41;101247;;;19.36;47.34
70198;BME280;57582;-34.876;138.628;2022-07-23T02:19:40;101241;;;19.34;47.87
70198;BME280;57582;-34.876;138.628;2022-07-23T02:22:40;101235;;;19.61;47.38
70198;BME280;57582;-34.876;138.628;2022-07-23T02:25:40;101238;;;19.78;46.50
70198;BME280;57582;-34.876;138.628;2022-07-23T02:28:41;101231;;;19.81;46.28
70198;BME280;57582;-34.876;138.628;2022-07-23T02:31:40;101221;;;20.04;46.15
70198;BME280;57582;-34.876;138.628;2022-07-23T02:34:40;101217;;;19.98;47.09
70198;BME280;57582;-34.876;138.628;2022-07-23T02:37:40;101202;;;20.09;48.04
70198;BME280;57582;-34.876;138.628;2022-07-23T02:40:41;101219;;;20.11;46.77
70198;BME280;57582;-34.876;138.628;2022-07-23T02:43:40;101207;;;20.15;46.21
70198;BME280;57582;-34.876;138.628;2022-07-23T02:46:40;101217;;;20.15;46.04
70198;BME280;57582;-34.876;138.628;2022-07-23T02:49:40;101210;;;20.34;45.32
70198;BME280;57582;-34.876;138.628;2022-07-23T02:52:41;101213;;;19.91;46.48
70198;BME280;57582;-34.876;138.628;2022-07-23T02:55:40;101207;;;19.94;45.41
70198;BME280;57582;-34.876;138.628;2022-07-23T02:58:40;101206;;;19.93;45.81
70198;BME280;57582;-34.876;138.628;2022-07-23T03:01:40;101205;;;20.06;45.80
70198;BME280;57582;-34.876;138.628;2022-07-23T03:04:41;101206;;;20.11;46.10
70198;BME280;57582;-34.876;138.628;2022-07-23T03:07:40;101188;;;20.28;44.62
70198;BME280;57582;-34.876;138.628;2022-07-23T03:10:40;101189;;;20.41;43.88
70198;BME280;57582;-34.876;138.628;2022-07-23T03:13:40;101189;;;20.41;44.37
70198;BME280;57582;-34.876;138.628;2022-07-23T03:16:42;101190;;;20.51;43.96
70198;BME280;57582;-34.876;138.628;2022-07-23T03:19:40;101187;;;20.63;43.78
70198;BME280;57582;-34.876;138.628;2022-07-23T03:22:40;101183;;;20.39;42.71
70198;BME280;57582;-34.876;138.628;2022-07-23T03:25:40;101182;;;20.40;43.09
70198;BME280;57582;-34.876;138.628;2022-07-23T03:28:41;101176;;;20.41;43.16
70198;BME280;57582;-34.876;138.628;2022-07-23T03:31:40;101169;;;20.39;42.83
70198;BME280;57582;-34.876;138.628;2022-07-23T03:34:40;101161;;;20.50;42.93
70198;BME280;57582;-34.876;138.628;2022-07-23T03:37:40;101165;;;20.48;43.07
70198;BME280;57582;-34.876;138.628;2022-07-23T03:40:41;101162;;;20.57;42.51
70198;BME280;57582;-34.876;138.628;2022-07-23T03:43:41;101156;;;20.69;42.81
70198;BME280;57582;-34.876;138.628;2022-07-23T03:46:41;101154;;;20.69;42.50
70198;BME280;57582;-34.876;138.628;2022-07-23T03:49:40;101150;;;20.52;42.40
70198;BME280;57582;-34.876;138.628;2022-07-23T03:52:40;101151;;;20.44;43.16
70198;BME280;57582;-34.876;138.628;2022-07-23T03:55:40;101149;;;20.48;43.55
70198;BME280;57582;-34.876;138.628;2022-07-23T03:58:40;101151;;;20.44;43.03
70198;BME280;57582;-34.876;138.628;2022-07-23T04:01:40;101147;;;20.45;42.80
70198;BME280;57582;-34.876;138.628;2022-07-23T04:04:41;101152;;;20.41;43.77
70198;BME280;57582;-34.876;138.628;2022-07-23T04:07:40;101146;;;20.38;43.49
70198;BME280;57582;-34.876;138.628;2022-07-23T04:10:40;101146;;;20.38;43.17
70198;BME280;57582;-34.876;138.628;2022-07-23T04:13:40;101141;;;20.43;43.04
70198;BME280;57582;-34.876;138.628;2022-07-23T04:16:41;101147;;;20.45;43.45
70198;BME280;57582;-34.876;138.628;2022-07-23T04:19:40;101141;;;20.58;42.51
70198;BME280;57582;-34.876;138.628;2022-07-23T04:22:40;101147;;;20.58;42.85
70198;BME280;57582;-34.876;138.628;2022-07-23T04:25:40;101147;;;20.46;42.62
70198;BME280;57582;-34.876;138.628;2022-07-23T04:28:41;101142;;;20.34;43.53
70198;BME280;57582;-34.876;138.628;2022-07-23T04:31:40;101137;;;20.33;42.93
70198;BME280;57582;-34.876;138.628;2022-07-23T04:34:40;101136;;;20.42;43.14
70198;BME280;57582;-34.876;138.628;2022-07-23T04:37:40;101139;;;20.45;42.24
70198;BME280;57582;-34.876;138.628;2022-07-23T04:40:41;101146;;;20.41;42.34
70198;BME280;57582;-34.876;138.628;2022-07-23T04:43:40;101144;;;20.40;42.36
70198;BME280;57582;-34.876;138.628;2022-07-23T04:46:40;101145;;;20.41;42.35
70198;BME280;57582;-34.876;138.628;2022-07-23T04:49:40;101138;;;20.35;41.95
70198;BME280;57582;-34.876;138.628;2022-07-23T04:52:41;101139;;;20.37;41.98
70198;BME280;57582;-34.876;138.628;2022-07-23T04:55:40;101127;;;20.26;42.64
70198;BME280;57582;-34.876;138.628;2022-07-23T04:58:40;101138;;;20.29;41.42
70198;BME280;57582;-34.876;138.628;2022-07-23T05:01:40;101129;;;20.41;41.97
70198;BME280;57582;-34.876;138.628;2022-07-23T05:04:41;101132;;;20.51;41.37
70198;BME280;57582;-34.876;138.628;2022-07-23T05:07:40;101128;;;20.50;41.25
70198;BME280;57582;-34.876;138.628;2022-07-23T05:10:40;101119;;;20.60;40.86
70198;BME280;57582;-34.876;138.628;2022-07-23T05:13:40;101123;;;20.67;40.17
70198;BME280;57582;-34.876;138.628;2022-07-23T05:16:41;101121;;;20.52;40.63
70198;BME280;57582;-34.876;138.628;2022-07-23T05:19:40;101128;;;20.45;39.55
70198;BME280;57582;-34.876;138.628;2022-07-23T05:22:40;101120;;;20.52;40.48
70198;BME280;57582;-34.876;138.628;2022-07-23T05:25:40;101127;;;20.29;40.03
70198;BME280;57582;-34.876;138.628;2022-07-23T05:28:41;101124;;;20.33;39.83
70198;BME280;57582;-34.876;138.628;2022-07-23T05:31:40;101126;;;20.32;40.41
70198;BME280;57582;-34.876;138.628;2022-07-23T05:34:40;101121;;;20.38;39.78
70198;BME280;57582;-34.876;138.628;2022-07-23T05:37:40;101121;;;20.47;39.98
70198;BME280;57582;-34.876;138.628;2022-07-23T05:40:41;101119;;;20.57;39.56
70198;BME280;57582;-34.876;138.628;2022-07-23T05:43:40;101119;;;20.60;39.52
70198;BME280;57582;-34.876;138.628;2022-07-23T05:46:40;101120;;;20.58;40.04
70198;BME280;57582;-34.876;138.628;2022-07-23T05:49:41;101123;;;20.65;39.71
70198;BME280;57582;-34.876;138.628;2022-07-23T05:52:41;101123;;;20.64;39.66
70198;BME280;57582;-34.876;138.628;2022-07-23T05:55:40;101115;;;20.62;39.02
70198;BME280;57582;-34.876;138.628;2022-07-23T05:58:40;101121;;;20.23;40.24
70198;BME280;57582;-34.876;138.628;2022-07-23T06:01:40;101109;;;20.15;39.36
70198;BME280;57582;-34.876;138.628;2022-07-23T06:04:41;101113;;;20.27;39.85
70198;BME280;57582;-34.876;138.628;2022-07-23T06:07:40;101115;;;20.34;38.65
70198;BME280;57582;-34.876;138.628;2022-07-23T06:10:40;101125;;;20.42;39.21
70198;BME280;57582;-34.876;138.628;2022-07-23T06:13:40;101130;;;20.33;39.05
70198;BME280;57582;-34.876;138.628;2022-07-23T06:16:41;101131;;;20.39;39.10
70198;BME280;57582;-34.876;138.628;2022-07-23T06:19:40;101127;;;20.10;38.71
70198;BME280;57582;-34.876;138.628;2022-07-23T06:22:40;101130;;;19.82;40.11
70198;BME280;57582;-34.876;138.628;2022-07-23T06:25:40;101129;;;19.90;40.22
70198;BME280;57582;-34.876;138.628;2022-07-23T06:28:41;101134;;;19.96;40.05
70198;BME280;57582;-34.876;138.628;2022-07-23T06:31:40;101126;;;19.98;39.89
70198;BME280;57582;-34.876;138.628;2022-07-23T06:34:40;101131;;;20.03;39.98
70198;BME280;57582;-34.876;138.628;2022-07-23T06:37:40;101125;;;19.97;39.92
70198;BME280;57582;-34.876;138.628;2022-07-23T06:40:41;101130;;;20.02;40.10
70198;BME280;57582;-34.876;138.628;2022-07-23T06:43:40;101134;;;19.97;40.37
70198;BME280;57582;-34.876;138.628;2022-07-23T06:46:40;101130;;;19.89;39.66
70198;BME280;57582;-34.876;138.628;2022-07-23T06:49:40;101134;;;19.72;39.78
70198;BME280;57582;-34.876;138.628;2022-07-23T06:52:41;101128;;;19.64;41.15
70198;BME280;57582;-34.876;138.628;2022-07-23T06:55:40;101134;;;19.63;40.26
70198;BME280;57582;-34.876;138.628;2022-07-23T06:58:40;101124;;;19.65;41.23
70198;BME280;57582;-34.876;138.628;2022-07-23T07:01:40;101138;;;19.71;40.78
70198;BME280;57582;-34.876;138.628;2022-07-23T07:04:41;101132;;;19.69;41.00
70198;BME280;57582;-34.876;138.628;2022-07-23T07:07:40;101132;;;19.70;41.10
70198;BME280;57582;-34.876;138.628;2022-07-23T07:10:40;101136;;;19.69;40.94
70198;BME280;57582;-34.876;138.628;2022-07-23T07:13:40;101131;;;19.64;40.57
70198;BME280;57582;-34.876;138.628;2022-07-23T07:16:41;101127;;;19.57;41.03
70198;BME280;57582;-34.876;138.628;2022-07-23T07:19:40;101129;;;19.55;41.24
70198;BME280;57582;-34.876;138.628;2022-07-23T07:22:40;101129;;;19.47;41.22
70198;BME280;57582;-34.876;138.628;2022-07-23T07:25:40;101128;;;19.45;41.26
70198;BME280;57582;-34.876;138.628;2022-07-23T07:28:41;101129;;;19.42;41.47
70198;BME280;57582;-34.876;138.628;2022-07-23T07:31:40;101146;;;19.36;41.78
70198;BME280;57582;-34.876;138.628;2022-07-23T07:34:40;101139;;;19.31;41.98
70198;BME280;57582;-34.876;138.628;2022-07-23T07:37:40;101144;;;19.22;42.67
70198;BME280;57582;-34.876;138.628;2022-07-23T07:40:41;101147;;;19.17;42.71
70198;BME280;57582;-34.876;138.628;2022-07-23T07:43:41;101143;;;19.06;43.56
70198;BME280;57582;-34.876;138.628;2022-07-23T07:46:40;101143;;;18.92;43.69
70198;BME280;57582;-34.876;138.628;2022-07-23T07:49:41;101146;;;18.77;43.89
70198;BME280;57582;-34.876;138.628;2022-07-23T07:52:41;101148;;;18.68;44.24
70198;BME280;57582;-34.876;138.628;2022-07-23T07:55:40;101152;;;18.62;44.90
70198;BME280;57582;-34.876;138.628;2022-07-23T07:58:40;101145;;;18.47;45.52
70198;BME280;57582;-34.876;138.628;2022-07-23T08:01:40;101149;;;18.36;45.84
70198;BME280;57582;-34.876;138.628;2022-07-23T08:04:41;101145;;;18.24;45.89
70198;BME280;57582;-34.876;138.628;2022-07-23T08:07:40;101142;;;18.11;46.27
70198;BME280;57582;-34.876;138.628;2022-07-23T08:10:41;101140;;;17.98;46.67
70198;BME280;57582;-34.876;138.628;2022-07-23T08:13:41;101144;;;17.91;46.87
70198;BME280;57582;-34.876;138.628;2022-07-23T08:16:42;101148;;;17.83;47.12
70198;BME280;57582;-34.876;138.628;2022-07-23T08:19:40;101148;;;17.77;47.31
70198;BME280;57582;-34.876;138.628;2022-07-23T08:22:41;101157;;;17.64;47.49
70198;BME280;57582;-34.876;138.628;2022-07-23T08:25:41;101148;;;17.61;47.67
70198;BME280;57582;-34.876;138.628;2022-07-23T08:28:41;101142;;;17.50;48.16
70198;BME280;57582;-34.876;138.628;2022-07-23T08:31:41;101151;;;17.33;49.04
70198;BME280;57582;-34.876;138.628;2022-07-23T08:34:41;101152;;;17.30;49.16
70198;BME280;57582;-34.876;138.628;2022-07-23T08:37:41;101153;;;17.34;49.34
70198;BME280;57582;-34.876;138.628;2022-07-23T08:40:45;101153;;;17.28;49.13
70198;BME280;57582;-34.876;138.628;2022-07-23T08:43:41;101159;;;17.25;49.31
70198;BME280;57582;-34.876;138.628;2022-07-23T08:46:41;101154;;;17.25;49.16
70198;BME280;57582;-34.876;138.628;2022-07-23T08:49:41;101159;;;17.16;49.18
70198;BME280;57582;-34.876;138.628;2022-07-23T08:52:43;101159;;;17.11;49.40
70198;BME280;57582;-34.876;138.628;2022-07-23T08:55:43;101164;;;17.11;49.37
70198;BME280;57582;-34.876;138.628;2022-07-23T08:58:41;101146;;;16.84;50.48
70198;BME280;57582;-34.876;138.628;2022-07-23T09:01:41;101175;;;16.98;50.62
70198;BME280;57582;-34.876;138.628;2022-07-23T09:04:41;101177;;;17.04;50.37
70198;BME280;57582;-34.876;138.628;2022-07-23T09:10:57;101182;;;17.07;50.00
70198;BME280;57582;-34.876;138.628;2022-07-23T09:13:42;101176;;;17.13;49.90
70198;BME280;57582;-34.876;138.628;2022-07-23T09:16:41;101190;;;16.75;51.51
70198;BME280;57582;-34.876;138.628;2022-07-23T09:19:41;101196;;;16.44;52.66
70198;BME280;57582;-34.876;138.628;2022-07-23T09:22:46;101196;;;16.18;53.96
70198;BME280;57582;-34.876;138.628;2022-07-23T09:25:41;101194;;;16.00;54.92
70198;BME280;57582;-34.876;138.628;2022-07-23T09:28:50;101198;;;16.08;54.93
70198;BME280;57582;-34.876;138.628;2022-07-23T09:34:41;101211;;;15.96;55.70
70198;BME280;57582;-34.876;138.628;2022-07-23T09:37:41;101222;;;15.63;56.64
70198;BME280;57582;-34.876;138.628;2022-07-23T09:40:42;101222;;;15.38;57.53
70198;BME280;57582;-34.876;138.628;2022-07-23T09:43:41;101221;;;15.22;57.93
70198;BME280;57582;-34.876;138.628;2022-07-23T09:46:41;101234;;;15.06;58.60
70198;BME280;57582;-34.876;138.628;2022-07-23T09:49:45;101231;;;14.91;59.05
70198;BME280;57582;-34.876;138.628;2022-07-23T09:52:43;101225;;;14.58;60.02
70198;BME280;57582;-34.876;138.628;2022-07-23T09:55:41;101228;;;14.25;61.07
70198;BME280;57582;-34.876;138.628;2022-07-23T09:58:41;101234;;;14.23;61.29
70198;BME280;57582;-34.876;138.628;2022-07-23T10:01:41;101231;;;14.04;62.00
70198;BME280;57582;-34.876;138.628;2022-07-23T10:04:41;101230;;;14.20;61.38
70198;BME280;57582;-34.876;138.628;2022-07-23T10:07:41;101228;;;14.44;60.85
70198;BME280;57582;-34.876;138.628;2022-07-23T10:10:41;101229;;;14.56;60.53
70198;BME280;57582;-34.876;138.628;2022-07-23T10:13:41;101233;;;14.69;60.25
70198;BME280;57582;-34.876;138.628;2022-07-23T10:16:41;101236;;;14.66;60.31
70198;BME280;57582;-34.876;138.628;2022-07-23T10:19:41;101238;;;14.23;61.79
70198;BME280;57582;-34.876;138.628;2022-07-23T10:22:53;101241;;;14.16;62.19
70198;BME280;57582;-34.876;138.628;2022-07-23T10:25:46;101239;;;13.92;62.79
70198;BME280;57582;-34.876;138.628;2022-07-23T10:28:49;101236;;;13.99;62.69
70198;BME280;57582;-34.876;138.628;2022-07-23T10:37:43;101232;;;14.58;60.91
70198;BME280;57582;-34.876;138.628;2022-07-23T10:43:41;101231;;;14.96;59.29
70198;BME280;57582;-34.876;138.628;2022-07-23T10:47:03;101223;;;15.13;58.11
70198;BME280;57582;-34.876;138.628;2022-07-23T10:49:41;101233;;;15.20;58.10
70198;BME280;57582;-34.876;138.628;2022-07-23T10:52:41;101232;;;15.19;58.37
70198;BME280;57582;-34.876;138.628;2022-07-23T10:55:42;101225;;;14.62;60.14
70198;BME280;57582;-34.876;138.628;2022-07-23T10:58:49;101228;;;14.08;61.91
70198;BME280;57582;-34.876;138.628;2022-07-23T11:01:41;101231;;;13.97;62.40
70198;BME280;57582;-34.876;138.628;2022-07-23T11:04:51;101225;;;13.79;62.92
70198;BME280;57582;-34.876;138.628;2022-07-23T11:10:43;101224;;;13.51;63.82
70198;BME280;57582;-34.876;138.628;2022-07-23T11:13:45;101221;;;13.18;64.93
70198;BME280;57582;-34.876;138.628;2022-07-23T11:16:49;101234;;;13.09;65.43
70198;BME280;57582;-34.876;138.628;2022-07-23T11:25:41;101228;;;12.56;67.46
70198;BME280;57582;-34.876;138.628;2022-07-23T11:28:41;101228;;;12.41;68.11
70198;BME280;57582;-34.876;138.628;2022-07-23T11:31:51;101235;;;12.28;68.50
70198;BME280;57582;-34.876;138.628;2022-07-23T11:34:42;101219;;;12.43;67.87
70198;BME280;57582;-34.876;138.628;2022-07-23T11:37:41;101226;;;12.72;66.87
70198;BME280;57582;-34.876;138.628;2022-07-23T11:40:46;101192;;;12.80;66.06
70198;BME280;57582;-34.876;138.628;2022-07-23T11:43:41;101226;;;13.15;65.17
70198;BME280;57582;-34.876;138.628;2022-07-23T11:46:41;101228;;;13.26;64.86
70198;BME280;57582;-34.876;138.628;2022-07-23T11:49:58;101226;;;13.38;64.31
70198;BME280;57582;-34.876;138.628;2022-07-23T11:52:42;101225;;;13.48;64.01
70198;BME280;57582;-34.876;138.628;2022-07-23T11:55:41;101231;;;13.62;63.40
70198;BME280;57582;-34.876;138.628;2022-07-23T11:58:54;101230;;;13.75;62.87
70198;BME280;57582;-34.876;138.628;2022-07-23T12:01:55;101237;;;13.88;62.48
70198;BME280;57582;-34.876;138.628;2022-07-23T12:04:42;101236;;;13.85;62.38
70198;BME280;57582;-34.876;138.628;2022-07-23T12:07:42;101228;;;13.85;62.28
70198;BME280;57582;-34.876;138.628;2022-07-23T12:10:43;101236;;;13.65;62.73
70198;BME280;57582;-34.876;138.628;2022-07-23T12:13:41;101238;;;13.46;63.47
70198;BME280;57582;-34.876;138.628;2022-07-23T12:16:41;101239;;;13.47;63.41
70198;BME280;57582;-34.876;138.628;2022-07-23T12:19:41;101240;;;13.47;63.39
70198;BME280;57582;-34.876;138.628;2022-07-23T12:22:44;101246;;;13.46;63.50
70198;BME280;57582;-34.876;138.628;2022-07-23T12:25:42;101239;;;13.44;63.51
70198;BME280;57582;-34.876;138.628;2022-07-23T12:28:41;101237;;;13.46;63.34
70198;BME280;57582;-34.876;138.628;2022-07-23T12:31:41;101240;;;13.47;63.02
70198;BME280;57582;-34.876;138.628;2022-07-23T12:34:41;101248;;;13.39;63.29
70198;BME280;57582;-34.876;138.628;2022-07-23T12:37:42;101240;;;13.28;63.56
70198;BME280;57582;-34.876;138.628;2022-07-23T12:40:44;101243;;;13.14;64.07
70198;BME280;57582;-34.876;138.628;2022-07-23T12:43:42;101242;;;13.01;64.56
70198;BME280;57582;-34.876;138.628;2022-07-23T12:46:41;101234;;;13.04;64.42
70198;BME280;57582;-34.876;138.628;2022-07-23T12:49:41;101235;;;13.04;64.38
70198;BME280;57582;-34.876;138.628;2022-07-23T12:52:42;101232;;;12.94;64.88
70198;BME280;57582;-34.876;138.628;2022-07-23T12:55:41;101226;;;13.01;64.61
70198;BME280;57582;-34.876;138.628;2022-07-23T12:58:50;101230;;;13.08;64.43
70198;BME280;57582;-34.876;138.628;2022-07-23T13:01:42;101218;;;13.12;64.30
70198;BME280;57582;-34.876;138.628;2022-07-23T13:04:41;101211;;;13.11;64.22
70198;BME280;57582;-34.876;138.628;2022-07-23T13:07:41;101214;;;13.06;64.33
70198;BME280;57582;-34.876;138.628;2022-07-23T13:10:41;101224;;;13.00;64.55
70198;BME280;57582;-34.876;138.628;2022-07-23T13:13:41;101219;;;13.03;64.23
70198;BME280;57582;-34.876;138.628;2022-07-23T13:16:42;101212;;;13.11;64.03
70198;BME280;57582;-34.876;138.628;2022-07-23T13:19:41;101211;;;13.19;63.86
70198;BME280;57582;-34.876;138.628;2022-07-23T13:22:41;101211;;;13.13;63.92
70198;BME280;57582;-34.876;138.628;2022-07-23T13:25:41;101218;;;12.86;64.74
70198;BME280;57582;-34.876;138.628;2022-07-23T13:28:42;101222;;;12.17;67.30
70198;BME280;57582;-34.876;138.628;2022-07-23T13:31:41;101228;;;11.75;68.98
70198;BME280;57582;-34.876;138.628;2022-07-23T13:34:41;101220;;;11.47;69.95
70198;BME280;57582;-34.876;138.628;2022-07-23T13:37:41;101224;;;11.32;70.66
70198;BME280;57582;-34.876;138.628;2022-07-23T13:40:42;101221;;;11.42;70.52
70198;BME280;57582;-34.876;138.628;2022-07-23T13:43:41;101222;;;11.53;69.94
70198;BME280;57582;-34.876;138.628;2022-07-23T13:46:41;101219;;;11.73;69.04
70198;BME280;57582;-34.876;138.628;2022-07-23T13:49:41;101216;;;11.95;68.01
70198;BME280;57582;-34.876;138.628;2022-07-23T13:52:42;101225;;;12.24;66.23
70198;BME280;57582;-34.876;138.628;2022-07-23T13:55:41;101234;;;12.41;65.84
70198;BME280;57582;-34.876;138.628;2022-07-23T13:58:41;101249;;;12.64;64.84
70198;BME280;57582;-34.876;138.628;2022-07-23T14:01:43;101227;;;12.69;63.34
70198;BME280;57582;-34.876;138.628;2022-07-23T14:04:41;101267;;;12.89;62.94
70198;BME280;57582;-34.876;138.628;2022-07-23T14:07:41;101263;;;12.93;63.19
70198;BME280;57582;-34.876;138.628;2022-07-23T14:10:41;101260;;;12.98;62.91
70198;BME280;57582;-34.876;138.628;2022-07-23T14:13:41;101267;;;13.01;62.46
70198;BME280;57582;-34.876;138.628;2022-07-23T14:16:42;101264;;;13.04;62.39
70198;BME280;57582;-34.876;138.628;2022-07-23T14:19:41;101259;;;13.07;62.34
70198;BME280;57582;-34.876;138.628;2022-07-23T14:22:41;101261;;;13.09;62.64
70198;BME280;57582;-34.876;138.628;2022-07-23T14:25:41;101258;;;13.10;62.44
70198;BME280;57582;-34.876;138.628;2022-07-23T14:28:42;101246;;;12.28;65.38
70198;BME280;57582;-34.876;138.628;2022-07-23T14:31:41;101246;;;11.87;67.26
70198;BME280;57582;-34.876;138.628;2022-07-23T14:34:41;101235;;;12.03;67.23
70198;BME280;57582;-34.876;138.628;2022-07-23T14:37:41;101227;;;12.45;66.22
70198;BME280;57582;-34.876;138.628;2022-07-23T14:40:42;101228;;;12.47;65.13
70198;BME280;57582;-34.876;138.628;2022-07-23T14:43:41;101217;;;12.61;64.76
70198;BME280;57582;-34.876;138.628;2022-07-23T14:46:41;101205;;;12.86;63.33
70198;BME280;57582;-34.876;138.628;2022-07-23T14:49:41;101195;;;12.64;64.09
70198;BME280;57582;-34.876;138.628;2022-07-23T14:52:42;101177;;;12.55;64.48
70198;BME280;57582;-34.876;138.628;2022-07-23T14:55:41;101174;;;12.60;64.05
70198;BME280;57582;-34.876;138.628;2022-07-23T14:58:41;101163;;;12.53;64.37
70198;BME280;57582;-34.876;138.628;2022-07-23T15:01:41;101164;;;12.73;63.53
70198;BME280;57582;-34.876;138.628;2022-07-23T15:04:42;101164;;;12.31;64.59
70198;BME280;57582;-34.876;138.628;2022-07-23T15:07:41;101153;;;11.80;66.35
70198;BME280;57582;-34.876;138.628;2022-07-23T15:10:41;101151;;;11.49;67.31
70198;BME280;57582;-34.876;138.628;2022-07-23T15:13:41;101146;;;11.27;68.27
70198;BME280;57582;-34.876;138.628;2022-07-23T15:16:42;101152;;;11.08;69.05
70198;BME280;57582;-34.876;138.628;2022-07-23T15:19:41;101147;;;10.95;69.62
70198;BME280;57582;-34.876;138.628;2022-07-23T15:22:41;101137;;;10.98;69.49
70198;BME280;57582;-34.876;138.628;2022-07-23T15:25:41;101130;;;10.64;70.76
70198;BME280;57582;-34.876;138.628;2022-07-23T15:28:42;101124;;;10.55;71.19
70198;BME280;57582;-34.876;138.628;2022-07-23T15:31:41;101121;;;10.59;70.97
70198;BME280;57582;-34.876;138.628;2022-07-23T15:34:41;101130;;;10.47;71.45
70198;BME280;57582;-34.876;138.628;2022-07-23T15:37:41;101124;;;10.46;71.61
70198;BME280;57582;-34.876;138.628;2022-07-23T15:40:42;101129;;;10.44;71.58
70198;BME280;57582;-34.876;138.628;2022-07-23T15:43:41;101119;;;10.52;71.27
70198;BME280;57582;-34.876;138.628;2022-07-23T15:46:41;101121;;;10.75;70.33
70198;BME280;57582;-34.876;138.628;2022-07-23T15:49:41;101136;;;10.86;69.94
70198;BME280;57582;-34.876;138.628;2022-07-23T15:52:42;101134;;;11.05;69.34
70198;BME280;57582;-34.876;138.628;2022-07-23T15:55:41;101140;;;11.22;68.43
70198;BME280;57582;-34.876;138.628;2022-07-23T15:58:41;101143;;;11.14;68.62
70198;BME280;57582;-34.876;138.628;2022-07-23T16:01:41;101134;;;11.10;68.96
70198;BME280;57582;-34.876;138.628;2022-07-23T16:04:42;101134;;;11.17;68.62